createdAt,value
2018-01-13T00:00:25.561Z,0.0
2018-01-13T00:15:25.568Z,0.0
2018-01-13T00:30:25.507Z,0.0
2018-01-13T00:45:25.578Z,0.0
2018-01-13T01:00:25.583Z,0.0
2018-01-13T01:15:25.589Z,0.0
2018-01-13T01:30:25.594Z,0.0
2018-01-13T01:45:25.601Z,0.0
2018-01-13T02:00:25.605Z,0.0
2018-01-13T02:15:25.490Z,0.0
2018-01-13T02:30:25.522Z,0.0
2018-01-13T02:45:25.520Z,0.0
2018-01-13T03:00:26.552Z,0.0
2018-01-13T03:15:25.532Z,0.0
2018-01-13T03:30:25.538Z,0.0
2018-01-13T03:45:25.545Z,0.0
2018-01-13T04:00:25.550Z,0.0
2018-01-13T04:15:25.553Z,0.0
2018-01-13T04:30:25.561Z,0.0
2018-01-13T04:45:25.633Z,0.0
2018-01-13T05:00:25.498Z,0.0
2018-01-13T05:15:25.528Z,0.0
2018-01-13T05:30:26.604Z,0.0
2018-01-13T05:45:25.586Z,0.0
2018-01-13T06:00:26.615Z,0.0
2018-01-13T06:15:25.596Z,0.0
2018-01-13T06:30:25.551Z,0.0
2018-01-13T06:36:25.649Z,0.1
2018-01-13T06:38:25.528Z,0.2
2018-01-13T06:39:25.528Z,0.3
2018-01-13T06:41:25.558Z,0.4
2018-01-13T06:42:25.530Z,0.5
2018-01-13T06:44:25.535Z,0.6
2018-01-13T06:45:25.562Z,0.7
2018-01-13T06:47:25.529Z,0.9
2018-01-13T06:48:25.530Z,1.0
2018-01-13T06:49:25.531Z,1.1
2018-01-13T06:50:25.563Z,1.3
2018-01-13T06:51:25.534Z,1.4
2018-01-13T06:52:25.531Z,1.5
2018-01-13T06:53:25.533Z,1.7
2018-01-13T06:54:25.531Z,1.9
2018-01-13T06:55:25.606Z,2.1
2018-01-13T06:56:25.534Z,2.3
2018-01-13T06:57:25.534Z,2.6
2018-01-13T06:58:25.536Z,3.0
2018-01-13T06:59:25.535Z,3.5
2018-01-13T07:00:25.567Z,4.0
2018-01-13T07:01:25.536Z,4.7
2018-01-13T07:02:25.535Z,5.3
2018-01-13T07:03:25.540Z,6.1
2018-01-13T07:04:25.545Z,6.9
2018-01-13T07:05:25.564Z,7.7
2018-01-13T07:06:25.539Z,8.7
2018-01-13T07:07:25.540Z,10.0
2018-01-13T07:08:25.571Z,11.5
2018-01-13T07:09:25.545Z,13.2
2018-01-13T07:10:25.544Z,15.1
2018-01-13T07:11:25.543Z,17.1
2018-01-13T07:12:25.571Z,19.4
2018-01-13T07:13:25.542Z,21.9
2018-01-13T07:14:25.545Z,24.9
2018-01-13T07:15:25.547Z,28.3
2018-01-13T07:16:25.577Z,32.1
2018-01-13T07:17:25.544Z,36.4
2018-01-13T07:18:25.544Z,41.0
2018-01-13T07:19:25.546Z,46.5
2018-01-13T07:20:25.548Z,52.9
2018-01-13T07:21:25.569Z,59.8
2018-01-13T07:22:25.544Z,67.2
2018-01-13T07:23:25.544Z,75.0
2018-01-13T07:24:25.545Z,83.8
2018-01-13T07:25:25.595Z,93.5
2018-01-13T07:26:25.577Z,104.9
2018-01-13T07:27:25.546Z,117.6
2018-01-13T07:28:25.581Z,132.0
2018-01-13T07:29:25.551Z,147.3
2018-01-13T07:30:25.547Z,165.1
2018-01-13T07:31:25.547Z,184.3
2018-01-13T07:32:25.550Z,205.0
2018-01-13T07:33:25.577Z,230.7
2018-01-13T07:34:25.551Z,258.9
2018-01-13T07:35:25.548Z,288.8
2018-01-13T07:36:25.546Z,322.7
2018-01-13T07:37:25.554Z,359.7
2018-01-13T07:38:25.576Z,401.7
2018-01-13T07:39:25.551Z,447.6
2018-01-13T07:40:25.549Z,495.3
2018-01-13T07:41:25.578Z,544.6
2018-01-13T07:42:25.553Z,597.6
2018-01-13T07:43:25.558Z,652.5
2018-01-13T07:44:25.552Z,705.2
2018-01-13T07:45:25.549Z,761.3
2018-01-13T07:46:25.573Z,817.0
2018-01-13T07:47:25.549Z,877.1
2018-01-13T07:48:25.549Z,939.5
2018-01-13T07:49:25.552Z,998.1
2018-01-13T07:50:25.585Z,1059.1
2018-01-13T07:51:25.550Z,1117.1
2018-01-13T07:52:25.550Z,1178.9
2018-01-13T07:53:25.551Z,1243.3
2018-01-13T07:54:25.550Z,1309.9
2018-01-13T07:55:25.578Z,1387.8
2018-01-13T07:56:25.548Z,1458.1
2018-01-13T07:57:25.582Z,1551.8
2018-01-13T07:58:25.561Z,1645.1
2018-01-13T07:59:25.548Z,1749.3
2018-01-13T08:00:25.548Z,1865.3
2018-01-13T08:01:25.554Z,1991.1
2018-01-13T08:02:25.581Z,2115.0
2018-01-13T08:03:25.550Z,2247.3
2018-01-13T08:04:25.551Z,2393.7
2018-01-13T08:05:25.552Z,2535.0
2018-01-13T08:06:25.552Z,2686.1
2018-01-13T08:07:25.583Z,2860.8
2018-01-13T08:08:25.550Z,3007.9
2018-01-13T08:09:25.553Z,3137.1
2018-01-13T08:10:25.549Z,3282.7
2018-01-13T08:11:25.551Z,3458.4
2018-01-13T08:12:25.583Z,3601.9
2018-01-13T08:13:25.552Z,3754.9
2018-01-13T08:14:25.551Z,3937.2
2018-01-13T08:15:25.553Z,4131.5
2018-01-13T08:16:25.551Z,4348.9
2018-01-13T08:17:25.576Z,4595.3
2018-01-13T08:18:25.574Z,4811.3
2018-01-13T08:19:25.549Z,5036.9
2018-01-13T08:20:25.547Z,5290.9
2018-01-13T08:21:25.553Z,5486.5
2018-01-13T08:22:25.549Z,5675.2
2018-01-13T08:23:25.579Z,5903.5
2018-01-13T08:24:25.548Z,6166.7
2018-01-13T08:25:25.570Z,6419.7
2018-01-13T08:26:25.577Z,6678.2
2018-01-13T08:27:25.553Z,6953.5
2018-01-13T08:28:25.584Z,7181.9
2018-01-13T08:29:25.547Z,7342.9
2018-01-13T08:30:25.550Z,7459.8
2018-01-13T08:31:25.553Z,7570.1
2018-01-13T08:32:25.549Z,7679.3
2018-01-13T08:33:25.578Z,7851.5
2018-01-13T08:34:25.550Z,8035.4
2018-01-13T08:35:25.549Z,8181.3
2018-01-13T08:36:25.548Z,8401.3
2018-01-13T08:37:25.549Z,8635.1
2018-01-13T08:38:25.577Z,8830.8
2018-01-13T08:39:25.546Z,9013.1
2018-01-13T08:40:25.548Z,9154.3
2018-01-13T08:41:25.553Z,9274.6
2018-01-13T08:42:25.573Z,9415.0
2018-01-13T08:43:25.548Z,9627.9
2018-01-13T08:44:25.546Z,9931.4
2018-01-13T08:45:25.550Z,10240.7
2018-01-13T08:46:25.554Z,10490.9
2018-01-13T08:47:25.577Z,10651.3
2018-01-13T08:48:25.549Z,10794.2
2018-01-13T08:49:25.548Z,10963.5
2018-01-13T08:50:25.548Z,11145.1
2018-01-13T08:51:25.549Z,11330.1
2018-01-13T08:52:25.583Z,11451.6
2018-01-13T08:53:25.551Z,11570.5
2018-01-13T08:54:25.790Z,11748.5
2018-01-13T08:55:25.553Z,11930.3
2018-01-13T08:56:25.550Z,12126.1
2018-01-13T08:57:25.580Z,12281.0
2018-01-13T08:58:25.546Z,12336.8
2018-01-13T08:59:25.553Z,12317.7
2018-01-13T09:00:25.552Z,12346.5
2018-01-13T09:01:25.550Z,12397.4
2018-01-13T09:02:25.587Z,12525.1
2018-01-13T09:03:25.553Z,12617.7
2018-01-13T09:04:25.549Z,12651.7
2018-01-13T09:05:25.551Z,12680.1
2018-01-13T09:06:25.552Z,12751.5
2018-01-13T09:07:25.585Z,12774.3
2018-01-13T09:08:25.552Z,12846.9
2018-01-13T09:09:25.556Z,12838.8
2018-01-13T09:10:25.557Z,12878.6
2018-01-13T09:11:25.557Z,12926.0
2018-01-13T09:12:25.589Z,13027.1
2018-01-13T09:13:25.553Z,13148.0
2018-01-13T09:14:25.555Z,13255.5
2018-01-13T09:15:25.559Z,13317.5
2018-01-13T09:16:25.556Z,13406.1
2018-01-13T09:17:25.592Z,13464.6
2018-01-13T09:18:25.562Z,13541.5
2018-01-13T09:19:25.561Z,13607.7
2018-01-13T09:20:25.562Z,13698.6
2018-01-13T09:21:25.566Z,13731.5
2018-01-13T09:22:25.594Z,13842.2
2018-01-13T09:23:25.561Z,13921.1
2018-01-13T09:24:25.563Z,13987.1
2018-01-13T09:25:25.567Z,14005.2
2018-01-13T09:26:25.569Z,13972.3
2018-01-13T09:27:25.603Z,13833.2
2018-01-13T09:28:25.575Z,13771.7
2018-01-13T09:29:25.567Z,13784.0
2018-01-13T09:30:25.566Z,13785.7
2018-01-13T09:31:25.573Z,13818.5
2018-01-13T09:32:25.602Z,13814.2
2018-01-13T09:33:25.569Z,13874.0
2018-01-13T09:34:25.566Z,13971.6
2018-01-13T09:35:25.570Z,14154.6
2018-01-13T09:36:25.567Z,14282.2
2018-01-13T09:37:25.598Z,14516.9
2018-01-13T09:38:25.571Z,14925.3
2018-01-13T09:39:25.574Z,15342.7
2018-01-13T09:40:25.568Z,15954.5
2018-01-13T09:41:25.568Z,16850.6
2018-01-13T09:42:25.603Z,17912.1
2018-01-13T09:43:25.568Z,19017.5
2018-01-13T09:44:25.571Z,20062.2
2018-01-13T09:45:25.584Z,21149.5
2018-01-13T09:46:25.573Z,22131.6
2018-01-13T09:47:25.600Z,23033.5
2018-01-13T09:48:25.569Z,23895.9
2018-01-13T09:49:25.571Z,24804.8
2018-01-13T09:50:25.570Z,25377.3
2018-01-13T09:51:25.569Z,25990.9
2018-01-13T09:52:25.603Z,26275.2
2018-01-13T09:53:25.575Z,26246.1
2018-01-13T09:54:25.572Z,26154.2
2018-01-13T09:55:25.576Z,25992.1
2018-01-13T09:56:25.570Z,25507.5
2018-01-13T09:57:25.604Z,24836.1
2018-01-13T09:58:25.573Z,24152.5
2018-01-13T09:59:26.600Z,23479.1
2018-01-13T10:00:25.579Z,22826.1
2018-01-13T10:01:25.573Z,22316.4
2018-01-13T10:02:25.608Z,21954.9
2018-01-13T10:03:25.589Z,21746.3
2018-01-13T10:04:25.575Z,21456.5
2018-01-13T10:05:25.609Z,21673.4
2018-01-13T10:06:25.576Z,21783.9
2018-01-13T10:07:25.606Z,22015.7
2018-01-13T10:08:25.574Z,22484.9
2018-01-13T10:09:25.574Z,22931.4
2018-01-13T10:10:25.580Z,23289.5
2018-01-13T10:11:25.577Z,23821.1
2018-01-13T10:12:25.616Z,24388.9
2018-01-13T10:13:25.575Z,24851.7
2018-01-13T10:14:25.580Z,25400.2
2018-01-13T10:15:25.579Z,25887.6
2018-01-13T10:16:25.579Z,26291.4
2018-01-13T10:17:25.609Z,26635.4
2018-01-13T10:18:25.575Z,26552.7
2018-01-13T10:19:25.578Z,26480.7
2018-01-13T10:20:25.578Z,26406.4
2018-01-13T10:21:25.578Z,26559.9
2018-01-13T10:22:25.611Z,26888.6
2018-01-13T10:23:25.581Z,26848.6
2018-01-13T10:24:25.580Z,26910.7
2018-01-13T10:25:25.578Z,26963.5
2018-01-13T10:26:25.580Z,26871.7
2018-01-13T10:27:25.639Z,26919.7
2018-01-13T10:28:25.582Z,27032.9
2018-01-13T10:29:25.587Z,26929.9
2018-01-13T10:30:25.592Z,26782.5
2018-01-13T10:31:25.605Z,26536.3
2018-01-13T10:32:25.616Z,26289.9
2018-01-13T10:33:25.584Z,26256.1
2018-01-13T10:34:25.583Z,26130.3
2018-01-13T10:35:25.583Z,25733.3
2018-01-13T10:36:25.584Z,25198.4
2018-01-13T10:37:25.616Z,24622.7
2018-01-13T10:38:25.583Z,24369.9
2018-01-13T10:39:25.585Z,24092.4
2018-01-13T10:40:25.590Z,23854.7
2018-01-13T10:41:25.584Z,23646.7
2018-01-13T10:42:25.618Z,23488.9
2018-01-13T10:43:25.585Z,23405.6
2018-01-13T10:44:25.586Z,23674.0
2018-01-13T10:45:25.590Z,23938.1
2018-01-13T10:46:25.593Z,24194.2
2018-01-13T10:47:25.620Z,24352.6
2018-01-13T10:48:30.606Z,24424.3
2018-01-13T10:49:25.587Z,24529.1
2018-01-13T10:50:25.595Z,24607.3
2018-01-13T10:51:25.589Z,24703.3
2018-01-13T10:52:25.626Z,24873.2
2018-01-13T10:53:25.595Z,25223.2
2018-01-13T10:54:25.590Z,25399.7
2018-01-13T10:55:25.590Z,25386.6
2018-01-13T10:56:25.594Z,25359.3
2018-01-13T10:57:25.623Z,25222.1
2018-01-13T10:58:25.591Z,25188.3
2018-01-13T10:59:25.593Z,24852.7
2018-01-13T11:00:25.598Z,24469.7
2018-01-13T11:01:25.596Z,24133.5
2018-01-13T11:02:25.630Z,23909.3
2018-01-13T11:03:25.601Z,23841.7
2018-01-13T11:04:25.599Z,23901.2
2018-01-13T11:05:25.596Z,23802.4
2018-01-13T11:06:25.597Z,23678.1
2018-01-13T11:07:25.622Z,23575.9
2018-01-13T11:08:25.629Z,23461.4
2018-01-13T11:09:25.597Z,23349.5
2018-01-13T11:10:25.609Z,23439.7
2018-01-13T11:11:25.596Z,23523.7
2018-01-13T11:12:25.606Z,23521.2
2018-01-13T11:13:26.659Z,23628.0
2018-01-13T11:14:25.837Z,23994.3
2018-01-13T11:15:25.625Z,24535.5
2018-01-13T11:16:25.596Z,25331.9
2018-01-13T11:17:25.597Z,26159.6
2018-01-13T11:18:25.624Z,26874.5
2018-01-13T11:19:25.599Z,27420.3
2018-01-13T11:20:25.602Z,28144.3
2018-01-13T11:21:25.598Z,28788.6
2018-01-13T11:22:25.599Z,29328.9
2018-01-13T11:23:25.647Z,29688.7
2018-01-13T11:24:25.602Z,30177.2
2018-01-13T11:25:25.598Z,30641.9
2018-01-13T11:26:25.599Z,31252.1
2018-01-13T11:27:25.599Z,31950.0
2018-01-13T11:28:25.631Z,32287.8
2018-01-13T11:29:25.604Z,32536.1
2018-01-13T11:30:25.601Z,32697.8
2018-01-13T11:31:25.605Z,32736.5
2018-01-13T11:32:25.601Z,32769.8
2018-01-13T11:33:25.633Z,32961.9
2018-01-13T11:34:25.602Z,33258.2
2018-01-13T11:35:25.628Z,33581.1
2018-01-13T11:36:25.604Z,34259.7
2018-01-13T11:37:25.605Z,34786.5
2018-01-13T11:38:25.633Z,35511.6
2018-01-13T11:39:25.600Z,36701.3
2018-01-13T11:40:25.600Z,37934.9
2018-01-13T11:41:25.600Z,38992.1
2018-01-13T11:42:25.600Z,39536.8
2018-01-13T11:43:25.636Z,40233.6
2018-01-13T11:44:25.614Z,41101.7
2018-01-13T11:45:25.601Z,42168.6
2018-01-13T11:46:25.601Z,42961.4
2018-01-13T11:47:26.657Z,43458.6
2018-01-13T11:48:25.599Z,43758.7
2018-01-13T11:49:25.625Z,44101.0
2018-01-13T11:50:25.603Z,44234.8
2018-01-13T11:51:25.598Z,43881.2
2018-01-13T11:52:25.600Z,43559.4
2018-01-13T11:53:25.874Z,42885.5
2018-01-13T11:54:25.627Z,41600.9
2018-01-13T11:55:25.601Z,40098.9
2018-01-13T11:56:25.600Z,38546.6
2018-01-13T11:57:25.602Z,37606.5
2018-01-13T11:58:25.623Z,36472.1
2018-01-13T11:59:26.650Z,34856.7
2018-01-13T12:00:25.599Z,33102.3
2018-01-13T12:01:25.601Z,31496.1
2018-01-13T12:02:25.889Z,30100.4
2018-01-13T12:03:25.602Z,28943.5
2018-01-13T12:04:25.624Z,27706.6
2018-01-13T12:05:25.597Z,26780.2
2018-01-13T12:06:25.600Z,26362.0
2018-01-13T12:07:25.603Z,25866.7
2018-01-13T12:08:25.601Z,25426.9
2018-01-13T12:09:25.623Z,25387.6
2018-01-13T12:10:25.626Z,25391.6
2018-01-13T12:11:25.601Z,25483.3
2018-01-13T12:12:25.598Z,25639.7
2018-01-13T12:13:25.852Z,25970.3
2018-01-13T12:14:25.634Z,26499.9
2018-01-13T12:15:25.598Z,26884.7
2018-01-13T12:16:25.837Z,27234.7
2018-01-13T12:17:25.599Z,27533.7
2018-01-13T12:18:25.598Z,27717.9
2018-01-13T12:19:25.629Z,27993.0
2018-01-13T12:20:25.604Z,28167.6
2018-01-13T12:21:25.602Z,27970.3
2018-01-13T12:22:25.597Z,28181.9
2018-01-13T12:23:25.598Z,28255.2
2018-01-13T12:24:25.630Z,28118.5
2018-01-13T12:25:25.631Z,28037.1
2018-01-13T12:26:25.602Z,27743.5
2018-01-13T12:27:25.603Z,27239.1
2018-01-13T12:28:25.599Z,26744.2
2018-01-13T12:29:25.633Z,26292.4
2018-01-13T12:30:25.600Z,25887.9
2018-01-13T12:31:25.603Z,25432.8
2018-01-13T12:32:25.600Z,24986.8
2018-01-13T12:33:25.600Z,24460.3
2018-01-13T12:34:25.624Z,23860.6
2018-01-13T12:35:25.600Z,23254.1
2018-01-13T12:36:25.607Z,22736.6
2018-01-13T12:37:26.645Z,21997.3
2018-01-13T12:38:25.600Z,21467.1
2018-01-13T12:39:25.624Z,21012.2
2018-01-13T12:40:26.632Z,20581.9
2018-01-13T12:41:25.607Z,20367.3
2018-01-13T12:42:25.598Z,20218.3
2018-01-13T12:43:25.598Z,19961.0
2018-01-13T12:44:25.629Z,19644.3
2018-01-13T12:45:25.597Z,19388.1
2018-01-13T12:46:25.597Z,19263.4
2018-01-13T12:47:25.599Z,19237.1
2018-01-13T12:48:25.600Z,19242.9
2018-01-13T12:49:25.637Z,19236.3
2018-01-13T12:50:25.598Z,19196.1
2018-01-13T12:51:25.601Z,19185.9
2018-01-13T12:52:25.603Z,19202.7
2018-01-13T12:53:25.607Z,19211.7
2018-01-13T12:54:25.636Z,19140.3
2018-01-13T12:55:25.599Z,19044.8
2018-01-13T12:56:30.603Z,19030.1
2018-01-13T12:57:25.606Z,18921.1
2018-01-13T12:58:25.600Z,18817.7
2018-01-13T12:59:25.641Z,18675.9
2018-01-13T13:00:25.607Z,18481.8
2018-01-13T13:01:25.600Z,18293.7
2018-01-13T13:02:25.597Z,18085.9
2018-01-13T13:03:25.597Z,17938.8
2018-01-13T13:04:25.632Z,17762.8
2018-01-13T13:05:25.625Z,17610.4
2018-01-13T13:06:25.597Z,17400.5
2018-01-13T13:07:25.600Z,17163.3
2018-01-13T13:08:25.606Z,16927.6
2018-01-13T13:09:25.623Z,16705.1
2018-01-13T13:10:25.622Z,16485.4
2018-01-13T13:11:25.598Z,16170.7
2018-01-13T13:12:25.599Z,15895.5
2018-01-13T13:13:35.602Z,15616.6
2018-01-13T13:14:25.597Z,15395.4
2018-01-13T13:15:25.630Z,15189.0
2018-01-13T13:16:25.597Z,14981.7
2018-01-13T13:17:25.597Z,14850.3
2018-01-13T13:18:25.597Z,14755.3
2018-01-13T13:19:25.597Z,14750.3
2018-01-13T13:20:25.629Z,14708.4
2018-01-13T13:21:25.597Z,14717.9
2018-01-13T13:22:25.601Z,14715.9
2018-01-13T13:23:25.596Z,14752.4
2018-01-13T13:24:25.599Z,14721.8
2018-01-13T13:25:25.621Z,14632.1
2018-01-13T13:26:25.596Z,14582.3
2018-01-13T13:27:25.599Z,14516.7
2018-01-13T13:28:30.633Z,14434.6
2018-01-13T13:29:25.600Z,14315.4
2018-01-13T13:30:25.604Z,14200.0
2018-01-13T13:31:25.600Z,14089.2
2018-01-13T13:32:25.602Z,13926.5
2018-01-13T13:33:25.603Z,13671.3
2018-01-13T13:34:25.640Z,13362.3
2018-01-13T13:35:25.604Z,13102.3
2018-01-13T13:36:25.601Z,12829.7
2018-01-13T13:37:25.607Z,12536.1
2018-01-13T13:38:25.602Z,12220.5
2018-01-13T13:39:25.875Z,11937.5
2018-01-13T13:40:26.627Z,11699.1
2018-01-13T13:41:25.605Z,11408.7
2018-01-13T13:42:25.602Z,11119.1
2018-01-13T13:43:25.604Z,10851.9
2018-01-13T13:44:25.637Z,10652.5
2018-01-13T13:45:25.608Z,10519.5
2018-01-13T13:46:25.608Z,10347.6
2018-01-13T13:47:25.607Z,10174.5
2018-01-13T13:48:25.607Z,10074.2
2018-01-13T13:49:25.633Z,9987.6
2018-01-13T13:50:25.605Z,9871.4
2018-01-13T13:51:25.607Z,9745.9
2018-01-13T13:52:25.614Z,9653.1
2018-01-13T13:53:25.609Z,9495.7
2018-01-13T13:54:25.634Z,9362.1
2018-01-13T13:55:25.613Z,9252.5
2018-01-13T13:56:25.851Z,9158.5
2018-01-13T13:57:25.609Z,9050.3
2018-01-13T13:58:25.612Z,8934.5
2018-01-13T13:59:25.635Z,8800.5
2018-01-13T14:00:25.610Z,8658.4
2018-01-13T14:01:28.778Z,8567.1
2018-01-13T14:02:25.613Z,8511.3
2018-01-13T14:03:25.613Z,8369.3
2018-01-13T14:04:25.642Z,8202.7
2018-01-13T14:05:25.616Z,8025.0
2018-01-13T14:06:25.610Z,7875.9
2018-01-13T14:07:25.614Z,7736.3
2018-01-13T14:08:25.614Z,7592.1
2018-01-13T14:09:25.636Z,7492.8
2018-01-13T14:10:25.656Z,7461.3
2018-01-13T14:11:25.617Z,7487.7
2018-01-13T14:12:25.611Z,7567.4
2018-01-13T14:13:25.614Z,7694.4
2018-01-13T14:14:25.644Z,7855.7
2018-01-13T14:15:25.615Z,7969.3
2018-01-13T14:16:25.612Z,8045.9
2018-01-13T14:17:25.611Z,8095.1
2018-01-13T14:18:25.613Z,8158.7
2018-01-13T14:19:25.645Z,8197.0
2018-01-13T14:20:25.613Z,8180.1
2018-01-13T14:21:25.613Z,8099.5
2018-01-13T14:22:25.614Z,7972.5
2018-01-13T14:23:25.614Z,7888.8
2018-01-13T14:24:25.642Z,7778.3
2018-01-13T14:25:25.611Z,7711.4
2018-01-13T14:26:25.607Z,7783.5
2018-01-13T14:27:25.607Z,7725.1
2018-01-13T14:28:25.640Z,7523.1
2018-01-13T14:29:25.900Z,7232.8
2018-01-13T14:30:25.614Z,6944.5
2018-01-13T14:31:25.610Z,6671.5
2018-01-13T14:32:25.608Z,6398.7
2018-01-13T14:33:25.608Z,6129.9
2018-01-13T14:34:25.882Z,5899.7
2018-01-13T14:35:25.614Z,5747.0
2018-01-13T14:36:25.618Z,5634.9
2018-01-13T14:37:25.608Z,5524.8
2018-01-13T14:38:25.610Z,5417.1
2018-01-13T14:39:25.640Z,5311.4
2018-01-13T14:40:25.638Z,5125.7
2018-01-13T14:41:25.609Z,4766.7
2018-01-13T14:42:25.637Z,4512.3
2018-01-13T14:43:25.618Z,4370.3
2018-01-13T14:44:25.636Z,4295.5
2018-01-13T14:45:25.616Z,4230.5
2018-01-13T14:46:25.611Z,4164.0
2018-01-13T14:47:25.613Z,4106.1
2018-01-13T14:48:25.611Z,4067.1
2018-01-13T14:49:25.640Z,4037.1
2018-01-13T14:50:25.615Z,3996.5
2018-01-13T14:51:25.620Z,3955.1
2018-01-13T14:52:25.887Z,3917.1
2018-01-13T14:53:25.610Z,3889.3
2018-01-13T14:54:25.615Z,3865.3
2018-01-13T14:55:25.613Z,3831.3
2018-01-13T14:56:25.613Z,3794.5
2018-01-13T14:57:25.638Z,3724.3
2018-01-13T14:58:25.615Z,3637.2
2018-01-13T14:59:25.638Z,3543.1
2018-01-13T15:00:25.613Z,3444.5
2018-01-13T15:01:25.612Z,3341.9
2018-01-13T15:02:25.613Z,3248.1
2018-01-13T15:03:25.616Z,3160.6
2018-01-13T15:04:25.645Z,3068.0
2018-01-13T15:05:25.615Z,2970.3
2018-01-13T15:06:25.618Z,2869.3
2018-01-13T15:07:25.613Z,2774.7
2018-01-13T15:08:25.617Z,2671.1
2018-01-13T15:09:25.654Z,2560.5
2018-01-13T15:10:25.615Z,2445.2
2018-01-13T15:11:25.615Z,2320.4
2018-01-13T15:12:25.616Z,2228.3
2018-01-13T15:13:25.616Z,2145.7
2018-01-13T15:14:25.639Z,2061.9
2018-01-13T15:15:25.620Z,1989.9
2018-01-13T15:16:25.620Z,1920.9
2018-01-13T15:17:25.618Z,1845.5
2018-01-13T15:18:25.649Z,1758.3
2018-01-13T15:19:25.623Z,1675.2
2018-01-13T15:20:25.649Z,1599.0
2018-01-13T15:21:25.618Z,1524.4
2018-01-13T15:22:25.618Z,1453.0
2018-01-13T15:23:25.619Z,1382.3
2018-01-13T15:24:25.621Z,1312.3
2018-01-13T15:25:25.655Z,1245.9
2018-01-13T15:26:25.625Z,1186.9
2018-01-13T15:27:25.620Z,1129.5
2018-01-13T15:28:25.621Z,1070.2
2018-01-13T15:29:25.628Z,1008.6
2018-01-13T15:30:25.655Z,948.5
2018-01-13T15:31:25.620Z,891.4
2018-01-13T15:32:25.623Z,836.3
2018-01-13T15:33:25.625Z,784.8
2018-01-13T15:34:25.625Z,736.1
2018-01-13T15:35:25.648Z,689.7
2018-01-13T15:36:26.652Z,642.7
2018-01-13T15:37:25.626Z,597.5
2018-01-13T15:38:25.624Z,553.3
2018-01-13T15:39:25.657Z,511.3
2018-01-13T15:40:25.625Z,471.5
2018-01-13T15:41:25.625Z,431.7
2018-01-13T15:42:25.627Z,391.6
2018-01-13T15:43:25.631Z,353.7
2018-01-13T15:44:25.660Z,320.5
2018-01-13T15:45:25.630Z,288.1
2018-01-13T15:46:25.628Z,258.5
2018-01-13T15:47:25.630Z,231.7
2018-01-13T15:48:25.636Z,205.7
2018-01-13T15:49:25.634Z,181.7
2018-01-13T15:50:25.656Z,161.6
2018-01-13T15:51:25.630Z,145.4
2018-01-13T15:52:25.631Z,129.1
2018-01-13T15:53:25.631Z,114.1
2018-01-13T15:54:25.631Z,101.2
2018-01-13T15:55:25.926Z,90.1
2018-01-13T15:56:25.635Z,79.5
2018-01-13T15:57:25.634Z,69.3
2018-01-13T15:58:25.638Z,60.5
2018-01-13T15:59:25.661Z,52.5
2018-01-13T16:00:25.635Z,45.4
2018-01-13T16:01:25.641Z,39.5
2018-01-13T16:02:25.638Z,34.1
2018-01-13T16:03:25.639Z,29.5
2018-01-13T16:04:25.641Z,25.4
2018-01-13T16:05:25.639Z,21.7
2018-01-13T16:06:25.903Z,18.7
2018-01-13T16:07:25.640Z,16.1
2018-01-13T16:08:25.639Z,13.8
2018-01-13T16:09:25.669Z,11.9
2018-01-13T16:10:25.640Z,10.3
2018-01-13T16:11:25.639Z,8.9
2018-01-13T16:12:25.642Z,7.7
2018-01-13T16:13:25.639Z,6.7
2018-01-13T16:14:25.662Z,5.8
2018-01-13T16:15:25.639Z,5.0
2018-01-13T16:16:25.639Z,4.3
2018-01-13T16:17:25.642Z,3.7
2018-01-13T16:18:25.646Z,3.2
2018-01-13T16:19:25.665Z,2.8
2018-01-13T16:20:25.640Z,2.5
2018-01-13T16:21:25.643Z,2.1
2018-01-13T16:22:25.645Z,1.9
2018-01-13T16:23:25.644Z,1.7
2018-01-13T16:24:25.674Z,1.4
2018-01-13T16:25:25.650Z,1.2
2018-01-13T16:26:25.644Z,1.0
2018-01-13T16:27:25.644Z,0.9
2018-01-13T16:28:25.646Z,0.7
2018-01-13T16:29:25.651Z,0.6
2018-01-13T16:30:30.681Z,0.5
2018-01-13T16:32:25.646Z,0.4
2018-01-13T16:33:25.648Z,0.3
2018-01-13T16:35:25.764Z,0.2
2018-01-13T16:36:25.671Z,0.1
